sensor_id;sensor_type;location;lat;lon;timestamp;temperature;humidity
16287;DHT22;8251;53.568;10.018;2023-09-08T00:00:32;23.70;61.30
16287;DHT22;8251;53.568;10.018;2023-09-08T00:02:59;23.70;61.40
16287;DHT22;8251;53.568;10.018;2023-09-08T00:05:26;23.70;61.40
16287;DHT22;8251;53.568;10.018;2023-09-08T00:07:52;23.60;61.50
16287;DHT22;8251;53.568;10.018;2023-09-08T00:10:20;23.60;61.50
16287;DHT22;8251;53.568;10.018;2023-09-08T00:12:47;23.60;61.70
16287;DHT22;8251;53.568;10.018;2023-09-08T00:15:14;23.60;61.80
16287;DHT22;8251;53.568;10.018;2023-09-08T00:17:40;23.50;61.80
16287;DHT22;8251;53.568;10.018;2023-09-08T00:20:07;23.50;61.90
16287;DHT22;8251;53.568;10.018;2023-09-08T00:22:35;23.50;62.00
16287;DHT22;8251;53.568;10.018;2023-09-08T00:25:03;23.40;62.10
16287;DHT22;8251;53.568;10.018;2023-09-08T00:27:32;23.40;62.10
16287;DHT22;8251;53.568;10.018;2023-09-08T00:29:58;23.30;62.20
16287;DHT22;8251;53.568;10.018;2023-09-08T00:32:27;23.30;62.30
16287;DHT22;8251;53.568;10.018;2023-09-08T00:34:54;23.30;62.50
16287;DHT22;8251;53.568;10.018;2023-09-08T00:37:21;23.20;62.40
16287;DHT22;8251;53.568;10.018;2023-09-08T00:39:48;23.20;62.50
16287;DHT22;8251;53.568;10.018;2023-09-08T00:42:14;23.20;62.60
16287;DHT22;8251;53.568;10.018;2023-09-08T00:44:44;23.10;62.60
16287;DHT22;8251;53.568;10.018;2023-09-08T00:47:11;23.10;62.60
16287;DHT22;8251;53.568;10.018;2023-09-08T00:49:38;23.10;62.70
16287;DHT22;8251;53.568;10.018;2023-09-08T00:52:06;23.10;62.80
16287;DHT22;8251;53.568;10.018;2023-09-08T00:54:32;23.00;62.80
16287;DHT22;8251;53.568;10.018;2023-09-08T00:57:01;23.00;62.80
16287;DHT22;8251;53.568;10.018;2023-09-08T00:59:30;23.00;63.00
16287;DHT22;8251;53.568;10.018;2023-09-08T01:01:59;23.00;63.00
16287;DHT22;8251;53.568;10.018;2023-09-08T01:04:25;23.00;63.20
16287;DHT22;8251;53.568;10.018;2023-09-08T01:06:52;23.00;63.00
16287;DHT22;8251;53.568;10.018;2023-09-08T01:09:19;23.00;63.10
16287;DHT22;8251;53.568;10.018;2023-09-08T01:11:46;22.90;63.10
16287;DHT22;8251;53.568;10.018;2023-09-08T01:14:13;22.90;63.20
16287;DHT22;8251;53.568;10.018;2023-09-08T01:16:44;22.90;63.30
16287;DHT22;8251;53.568;10.018;2023-09-08T01:19:13;22.90;63.30
16287;DHT22;8251;53.568;10.018;2023-09-08T01:21:58;22.80;63.30
16287;DHT22;8251;53.568;10.018;2023-09-08T01:25:05;22.80;63.30
16287;DHT22;8251;53.568;10.018;2023-09-08T01:27:37;22.80;63.40
16287;DHT22;8251;53.568;10.018;2023-09-08T01:30:05;22.80;63.50
16287;DHT22;8251;53.568;10.018;2023-09-08T01:32:34;22.70;63.50
16287;DHT22;8251;53.568;10.018;2023-09-08T01:35:01;22.70;63.60
16287;DHT22;8251;53.568;10.018;2023-09-08T01:37:29;22.70;63.70
16287;DHT22;8251;53.568;10.018;2023-09-08T01:39:55;22.70;63.80
16287;DHT22;8251;53.568;10.018;2023-09-08T01:42:23;22.60;63.70
16287;DHT22;8251;53.568;10.018;2023-09-08T01:44:50;22.60;63.80
16287;DHT22;8251;53.568;10.018;2023-09-08T01:47:17;22.60;63.80
16287;DHT22;8251;53.568;10.018;2023-09-08T01:49:44;22.70;63.90
16287;DHT22;8251;53.568;10.018;2023-09-08T01:52:10;22.60;63.90
16287;DHT22;8251;53.568;10.018;2023-09-08T01:54:37;22.60;64.00
16287;DHT22;8251;53.568;10.018;2023-09-08T01:57:04;22.60;64.10
16287;DHT22;8251;53.568;10.018;2023-09-08T01:59:32;22.60;64.20
16287;DHT22;8251;53.568;10.018;2023-09-08T02:01:59;22.60;64.30
16287;DHT22;8251;53.568;10.018;2023-09-08T02:04:26;22.60;64.30
16287;DHT22;8251;53.568;10.018;2023-09-08T02:06:52;22.60;64.40
16287;DHT22;8251;53.568;10.018;2023-09-08T02:09:19;22.60;64.70
16287;DHT22;8251;53.568;10.018;2023-09-08T02:11:46;22.50;64.40
16287;DHT22;8251;53.568;10.018;2023-09-08T02:14:13;22.60;64.50
16287;DHT22;8251;53.568;10.018;2023-09-08T02:16:41;22.60;64.50
16287;DHT22;8251;53.568;10.018;2023-09-08T02:19:08;22.60;64.90
16287;DHT22;8251;53.568;10.018;2023-09-08T02:21:35;22.50;64.50
16287;DHT22;8251;53.568;10.018;2023-09-08T02:24:02;22.50;64.60
16287;DHT22;8251;53.568;10.018;2023-09-08T02:26:29;22.50;64.60
16287;DHT22;8251;53.568;10.018;2023-09-08T02:28:58;22.50;64.60
16287;DHT22;8251;53.568;10.018;2023-09-08T02:31:26;22.50;64.70
16287;DHT22;8251;53.568;10.018;2023-09-08T02:33:54;22.50;64.80
16287;DHT22;8251;53.568;10.018;2023-09-08T02:36:21;22.40;64.90
16287;DHT22;8251;53.568;10.018;2023-09-08T02:38:50;22.40;64.90
16287;DHT22;8251;53.568;10.018;2023-09-08T02:41:17;22.40;65.00
16287;DHT22;8251;53.568;10.018;2023-09-08T02:43:44;22.40;65.10
16287;DHT22;8251;53.568;10.018;2023-09-08T02:46:11;22.40;65.20
16287;DHT22;8251;53.568;10.018;2023-09-08T02:48:38;22.40;65.20
16287;DHT22;8251;53.568;10.018;2023-09-08T02:51:06;22.40;65.30
16287;DHT22;8251;53.568;10.018;2023-09-08T02:53:33;22.30;65.20
16287;DHT22;8251;53.568;10.018;2023-09-08T02:56:00;22.30;65.30
16287;DHT22;8251;53.568;10.018;2023-09-08T02:58:28;22.30;65.40
16287;DHT22;8251;53.568;10.018;2023-09-08T03:00:56;22.30;65.30
16287;DHT22;8251;53.568;10.018;2023-09-08T03:03:22;22.30;65.40
16287;DHT22;8251;53.568;10.018;2023-09-08T03:05:53;22.30;65.60
16287;DHT22;8251;53.568;10.018;2023-09-08T03:08:22;22.30;65.60
16287;DHT22;8251;53.568;10.018;2023-09-08T03:10:49;22.30;65.60
16287;DHT22;8251;53.568;10.018;2023-09-08T03:13:16;22.30;65.60
16287;DHT22;8251;53.568;10.018;2023-09-08T03:15:43;22.30;65.60
16287;DHT22;8251;53.568;10.018;2023-09-08T03:18:09;22.30;65.70
16287;DHT22;8251;53.568;10.018;2023-09-08T03:20:36;22.20;65.80
16287;DHT22;8251;53.568;10.018;2023-09-08T03:23:03;22.20;65.80
16287;DHT22;8251;53.568;10.018;2023-09-08T03:25:31;22.20;65.90
16287;DHT22;8251;53.568;10.018;2023-09-08T03:27:58;22.20;65.90
16287;DHT22;8251;53.568;10.018;2023-09-08T03:30:25;22.20;65.90
16287;DHT22;8251;53.568;10.018;2023-09-08T03:32:52;22.20;65.90
16287;DHT22;8251;53.568;10.018;2023-09-08T03:35:19;22.10;66.00
16287;DHT22;8251;53.568;10.018;2023-09-08T03:37:45;22.10;66.10
16287;DHT22;8251;53.568;10.018;2023-09-08T03:40:12;22.00;66.20
16287;DHT22;8251;53.568;10.018;2023-09-08T03:42:40;22.00;66.40
16287;DHT22;8251;53.568;10.018;2023-09-08T03:45:09;22.00;66.60
16287;DHT22;8251;53.568;10.018;2023-09-08T03:47:35;22.00;66.80
16287;DHT22;8251;53.568;10.018;2023-09-08T03:50:03;21.90;66.70
16287;DHT22;8251;53.568;10.018;2023-09-08T03:52:29;21.90;66.90
16287;DHT22;8251;53.568;10.018;2023-09-08T03:54:56;21.80;66.90
16287;DHT22;8251;53.568;10.018;2023-09-08T03:57:23;21.80;67.10
16287;DHT22;8251;53.568;10.018;2023-09-08T03:59:51;21.80;67.20
16287;DHT22;8251;53.568;10.018;2023-09-08T04:02:18;21.80;67.30
16287;DHT22;8251;53.568;10.018;2023-09-08T04:04:45;21.70;67.50
16287;DHT22;8251;53.568;10.018;2023-09-08T04:07:12;21.70;67.60
16287;DHT22;8251;53.568;10.018;2023-09-08T04:09:39;21.70;67.70
16287;DHT22;8251;53.568;10.018;2023-09-08T04:12:06;21.60;67.80
16287;DHT22;8251;53.568;10.018;2023-09-08T04:14:34;21.60;67.90
16287;DHT22;8251;53.568;10.018;2023-09-08T04:17:03;21.60;68.00
16287;DHT22;8251;53.568;10.018;2023-09-08T04:19:30;21.60;68.10
16287;DHT22;8251;53.568;10.018;2023-09-08T04:21:56;21.50;68.10
16287;DHT22;8251;53.568;10.018;2023-09-08T04:24:23;21.50;68.20
16287;DHT22;8251;53.568;10.018;2023-09-08T04:26:49;21.50;68.30
16287;DHT22;8251;53.568;10.018;2023-09-08T04:29:16;21.50;68.50
16287;DHT22;8251;53.568;10.018;2023-09-08T04:31:42;21.50;68.60
16287;DHT22;8251;53.568;10.018;2023-09-08T04:34:10;21.40;68.60
16287;DHT22;8251;53.568;10.018;2023-09-08T04:36:37;21.40;68.80
16287;DHT22;8251;53.568;10.018;2023-09-08T04:39:04;21.40;68.90
16287;DHT22;8251;53.568;10.018;2023-09-08T04:41:30;21.30;68.80
16287;DHT22;8251;53.568;10.018;2023-09-08T04:43:57;21.30;68.90
16287;DHT22;8251;53.568;10.018;2023-09-08T04:46:24;21.30;68.90
16287;DHT22;8251;53.568;10.018;2023-09-08T04:48:51;21.30;69.00
16287;DHT22;8251;53.568;10.018;2023-09-08T04:51:19;21.30;69.10
16287;DHT22;8251;53.568;10.018;2023-09-08T04:53:46;21.30;69.20
16287;DHT22;8251;53.568;10.018;2023-09-08T04:56:13;21.30;69.20
16287;DHT22;8251;53.568;10.018;2023-09-08T04:58:40;21.30;69.20
16287;DHT22;8251;53.568;10.018;2023-09-08T05:01:07;21.30;69.20
16287;DHT22;8251;53.568;10.018;2023-09-08T05:03:34;21.30;69.20
16287;DHT22;8251;53.568;10.018;2023-09-08T05:06:01;21.30;69.30
16287;DHT22;8251;53.568;10.018;2023-09-08T05:08:29;21.30;69.30
16287;DHT22;8251;53.568;10.018;2023-09-08T05:10:55;21.40;69.40
16287;DHT22;8251;53.568;10.018;2023-09-08T05:13:22;21.30;69.30
16287;DHT22;8251;53.568;10.018;2023-09-08T05:15:52;21.30;69.20
16287;DHT22;8251;53.568;10.018;2023-09-08T05:18:25;21.40;70.10
16287;DHT22;8251;53.568;10.018;2023-09-08T05:20:52;21.40;69.20
16287;DHT22;8251;53.568;10.018;2023-09-08T05:23:20;21.40;69.20
16287;DHT22;8251;53.568;10.018;2023-09-08T05:25:48;21.40;69.20
16287;DHT22;8251;53.568;10.018;2023-09-08T05:28:15;21.40;69.20
16287;DHT22;8251;53.568;10.018;2023-09-08T05:30:42;21.40;69.20
16287;DHT22;8251;53.568;10.018;2023-09-08T05:33:08;21.40;69.20
16287;DHT22;8251;53.568;10.018;2023-09-08T05:35:35;21.50;69.30
16287;DHT22;8251;53.568;10.018;2023-09-08T05:38:02;21.50;69.30
16287;DHT22;8251;53.568;10.018;2023-09-08T05:40:34;21.50;69.30
16287;DHT22;8251;53.568;10.018;2023-09-08T05:43:03;21.60;69.20
16287;DHT22;8251;53.568;10.018;2023-09-08T05:45:31;21.60;69.20
16287;DHT22;8251;53.568;10.018;2023-09-08T05:47:58;21.60;70.10
16287;DHT22;8251;53.568;10.018;2023-09-08T05:50:25;21.60;69.20
16287;DHT22;8251;53.568;10.018;2023-09-08T05:52:52;21.70;69.30
16287;DHT22;8251;53.568;10.018;2023-09-08T05:55:19;21.70;69.20
16287;DHT22;8251;53.568;10.018;2023-09-08T05:57:46;21.70;69.10
16287;DHT22;8251;53.568;10.018;2023-09-08T06:00:15;21.80;69.10
16287;DHT22;8251;53.568;10.018;2023-09-08T06:02:42;21.80;69.10
16287;DHT22;8251;53.568;10.018;2023-09-08T06:05:08;21.80;69.10
16287;DHT22;8251;53.568;10.018;2023-09-08T06:07:35;21.80;69.00
16287;DHT22;8251;53.568;10.018;2023-09-08T06:10:02;21.90;69.00
16287;DHT22;8251;53.568;10.018;2023-09-08T06:12:29;21.90;69.00
16287;DHT22;8251;53.568;10.018;2023-09-08T06:14:55;21.90;68.90
16287;DHT22;8251;53.568;10.018;2023-09-08T06:17:23;22.00;68.90
16287;DHT22;8251;53.568;10.018;2023-09-08T06:19:51;22.00;68.70
16287;DHT22;8251;53.568;10.018;2023-09-08T06:22:17;22.10;68.70
16287;DHT22;8251;53.568;10.018;2023-09-08T06:24:45;22.10;68.50
16287;DHT22;8251;53.568;10.018;2023-09-08T06:27:11;22.20;68.50
16287;DHT22;8251;53.568;10.018;2023-09-08T06:29:40;22.30;68.50
16287;DHT22;8251;53.568;10.018;2023-09-08T06:32:09;22.50;68.20
16287;DHT22;8251;53.568;10.018;2023-09-08T06:34:37;22.70;67.90
16287;DHT22;8251;53.568;10.018;2023-09-08T06:37:04;23.00;67.20
16287;DHT22;8251;53.568;10.018;2023-09-08T06:39:31;23.30;66.50
16287;DHT22;8251;53.568;10.018;2023-09-08T06:41:58;23.80;65.20
16287;DHT22;8251;53.568;10.018;2023-09-08T06:44:25;24.50;63.30
16287;DHT22;8251;53.568;10.018;2023-09-08T06:46:51;25.30;61.10
16287;DHT22;8251;53.568;10.018;2023-09-08T06:49:18;26.10;59.10
16287;DHT22;8251;53.568;10.018;2023-09-08T06:51:46;27.00;57.50
16287;DHT22;8251;53.568;10.018;2023-09-08T06:54:14;27.80;55.90
16287;DHT22;8251;53.568;10.018;2023-09-08T06:56:41;28.20;53.90
16287;DHT22;8251;53.568;10.018;2023-09-08T06:59:08;28.10;54.00
16287;DHT22;8251;53.568;10.018;2023-09-08T07:01:36;27.80;54.40
16287;DHT22;8251;53.568;10.018;2023-09-08T07:04:03;27.80;54.70
16287;DHT22;8251;53.568;10.018;2023-09-08T07:06:30;28.30;54.30
16287;DHT22;8251;53.568;10.018;2023-09-08T07:08:58;28.90;52.90
16287;DHT22;8251;53.568;10.018;2023-09-08T07:11:25;29.20;52.00
16287;DHT22;8251;53.568;10.018;2023-09-08T07:13:52;29.40;51.80
16287;DHT22;8251;53.568;10.018;2023-09-08T07:16:19;29.40;51.90
16287;DHT22;8251;53.568;10.018;2023-09-08T07:18:46;29.10;52.00
16287;DHT22;8251;53.568;10.018;2023-09-08T07:21:12;28.90;52.70
16287;DHT22;8251;53.568;10.018;2023-09-08T07:23:39;29.00;53.10
16287;DHT22;8251;53.568;10.018;2023-09-08T07:26:07;29.50;52.60
16287;DHT22;8251;53.568;10.018;2023-09-08T07:28:34;30.30;50.90
16287;DHT22;8251;53.568;10.018;2023-09-08T07:31:01;31.00;49.10
16287;DHT22;8251;53.568;10.018;2023-09-08T07:33:29;31.30;47.80
16287;DHT22;8251;53.568;10.018;2023-09-08T07:35:55;31.10;47.90
16287;DHT22;8251;53.568;10.018;2023-09-08T07:38:27;31.10;48.20
16287;DHT22;8251;53.568;10.018;2023-09-08T07:41:01;31.10;48.20
16287;DHT22;8251;53.568;10.018;2023-09-08T07:43:33;30.70;48.20
16287;DHT22;8251;53.568;10.018;2023-09-08T07:46:03;30.20;49.20
16287;DHT22;8251;53.568;10.018;2023-09-08T07:48:30;29.60;50.00
16287;DHT22;8251;53.568;10.018;2023-09-08T07:50:57;29.20;51.00
16287;DHT22;8251;53.568;10.018;2023-09-08T07:53:25;28.70;51.90
16287;DHT22;8251;53.568;10.018;2023-09-08T07:55:52;28.50;52.80
16287;DHT22;8251;53.568;10.018;2023-09-08T07:58:19;28.60;53.00
16287;DHT22;8251;53.568;10.018;2023-09-08T08:00:47;29.20;52.50
16287;DHT22;8251;53.568;10.018;2023-09-08T08:03:15;30.20;51.40
16287;DHT22;8251;53.568;10.018;2023-09-08T08:05:42;31.10;49.80
16287;DHT22;8251;53.568;10.018;2023-09-08T08:08:09;32.00;48.40
16287;DHT22;8251;53.568;10.018;2023-09-08T08:10:36;32.80;45.80
16287;DHT22;8251;53.568;10.018;2023-09-08T08:13:03;33.40;45.20
16287;DHT22;8251;53.568;10.018;2023-09-08T08:15:36;33.90;44.20
16287;DHT22;8251;53.568;10.018;2023-09-08T08:18:05;34.40;43.70
16287;DHT22;8251;53.568;10.018;2023-09-08T08:20:33;34.90;44.10
16287;DHT22;8251;53.568;10.018;2023-09-08T08:23:01;35.50;42.70
16287;DHT22;8251;53.568;10.018;2023-09-08T08:25:28;36.10;42.00
16287;DHT22;8251;53.568;10.018;2023-09-08T08:27:55;36.60;41.10
16287;DHT22;8251;53.568;10.018;2023-09-08T08:30:24;37.00;39.50
16287;DHT22;8251;53.568;10.018;2023-09-08T08:32:50;37.40;38.50
16287;DHT22;8251;53.568;10.018;2023-09-08T08:35:20;37.60;37.80
16287;DHT22;8251;53.568;10.018;2023-09-08T08:37:47;37.70;37.70
16287;DHT22;8251;53.568;10.018;2023-09-08T08:40:13;37.80;37.70
16287;DHT22;8251;53.568;10.018;2023-09-08T08:42:40;38.10;36.90
16287;DHT22;8251;53.568;10.018;2023-09-08T08:45:08;38.50;36.80
16287;DHT22;8251;53.568;10.018;2023-09-08T08:47:36;38.80;36.10
16287;DHT22;8251;53.568;10.018;2023-09-08T08:50:03;39.20;35.90
16287;DHT22;8251;53.568;10.018;2023-09-08T08:52:31;39.50;35.30
16287;DHT22;8251;53.568;10.018;2023-09-08T08:54:59;39.70;34.70
16287;DHT22;8251;53.568;10.018;2023-09-08T08:57:27;39.70;34.60
16287;DHT22;8251;53.568;10.018;2023-09-08T08:59:54;39.90;34.60
16287;DHT22;8251;53.568;10.018;2023-09-08T09:02:23;39.90;34.70
16287;DHT22;8251;53.568;10.018;2023-09-08T09:04:56;39.60;35.30
16287;DHT22;8251;53.568;10.018;2023-09-08T09:07:26;39.00;34.80
16287;DHT22;8251;53.568;10.018;2023-09-08T09:09:55;38.10;35.60
16287;DHT22;8251;53.568;10.018;2023-09-08T09:12:22;37.10;36.60
16287;DHT22;8251;53.568;10.018;2023-09-08T09:14:52;36.30;37.80
16287;DHT22;8251;53.568;10.018;2023-09-08T09:17:20;35.70;39.10
16287;DHT22;8251;53.568;10.018;2023-09-08T09:19:46;35.20;39.90
16287;DHT22;8251;53.568;10.018;2023-09-08T09:22:13;34.60;40.70
16287;DHT22;8251;53.568;10.018;2023-09-08T09:24:41;34.20;41.70
16287;DHT22;8251;53.568;10.018;2023-09-08T09:27:10;33.90;42.30
16287;DHT22;8251;53.568;10.018;2023-09-08T09:29:44;33.50;42.50
16287;DHT22;8251;53.568;10.018;2023-09-08T09:32:12;33.00;43.40
16287;DHT22;8251;53.568;10.018;2023-09-08T09:34:48;32.70;43.90
16287;DHT22;8251;53.568;10.018;2023-09-08T09:37:16;32.40;44.30
16287;DHT22;8251;53.568;10.018;2023-09-08T09:39:48;32.10;44.80
16287;DHT22;8251;53.568;10.018;2023-09-08T09:42:17;32.00;45.00
16287;DHT22;8251;53.568;10.018;2023-09-08T09:44:47;32.20;45.30
16287;DHT22;8251;53.568;10.018;2023-09-08T09:47:14;32.60;45.30
16287;DHT22;8251;53.568;10.018;2023-09-08T09:49:42;32.90;44.10
16287;DHT22;8251;53.568;10.018;2023-09-08T09:52:11;33.30;44.20
16287;DHT22;8251;53.568;10.018;2023-09-08T09:54:39;33.80;43.90
16287;DHT22;8251;53.568;10.018;2023-09-08T09:57:07;34.20;42.80
16287;DHT22;8251;53.568;10.018;2023-09-08T09:59:35;34.50;42.20
16287;DHT22;8251;53.568;10.018;2023-09-08T10:02:03;34.80;42.00
16287;DHT22;8251;53.568;10.018;2023-09-08T10:04:30;35.10;41.70
16287;DHT22;8251;53.568;10.018;2023-09-08T10:06:57;35.20;41.30
16287;DHT22;8251;53.568;10.018;2023-09-08T10:09:24;35.30;41.50
16287;DHT22;8251;53.568;10.018;2023-09-08T10:11:54;35.30;41.50
16287;DHT22;8251;53.568;10.018;2023-09-08T10:14:27;35.40;41.40
16287;DHT22;8251;53.568;10.018;2023-09-08T10:17:00;35.40;41.40
16287;DHT22;8251;53.568;10.018;2023-09-08T10:19:29;35.40;41.50
16287;DHT22;8251;53.568;10.018;2023-09-08T10:21:59;35.50;41.60
16287;DHT22;8251;53.568;10.018;2023-09-08T10:24:33;35.60;41.80
16287;DHT22;8251;53.568;10.018;2023-09-08T10:27:03;35.60;41.00
16287;DHT22;8251;53.568;10.018;2023-09-08T10:29:32;35.70;41.20
16287;DHT22;8251;53.568;10.018;2023-09-08T10:32:01;35.90;41.20
16287;DHT22;8251;53.568;10.018;2023-09-08T10:34:30;36.10;40.90
16287;DHT22;8251;53.568;10.018;2023-09-08T10:36:57;36.10;40.70
16287;DHT22;8251;53.568;10.018;2023-09-08T10:39:28;36.30;40.40
16287;DHT22;8251;53.568;10.018;2023-09-08T10:42:23;36.40;40.20
16287;DHT22;8251;53.568;10.018;2023-09-08T10:44:59;36.60;41.10
16287;DHT22;8251;53.568;10.018;2023-09-08T10:47:39;36.70;40.80
16287;DHT22;8251;53.568;10.018;2023-09-08T10:50:16;36.70;40.40
16287;DHT22;8251;53.568;10.018;2023-09-08T10:52:42;36.60;40.60
16287;DHT22;8251;53.568;10.018;2023-09-08T10:55:13;36.40;40.70
16287;DHT22;8251;53.568;10.018;2023-09-08T10:57:44;36.30;40.90
16287;DHT22;8251;53.568;10.018;2023-09-08T11:00:21;36.20;41.30
16287;DHT22;8251;53.568;10.018;2023-09-08T11:02:50;36.00;41.30
16287;DHT22;8251;53.568;10.018;2023-09-08T11:05:17;35.90;41.30
16287;DHT22;8251;53.568;10.018;2023-09-08T11:07:47;35.70;41.60
16287;DHT22;8251;53.568;10.018;2023-09-08T11:10:15;35.70;41.90
16287;DHT22;8251;53.568;10.018;2023-09-08T11:12:42;35.50;41.80
16287;DHT22;8251;53.568;10.018;2023-09-08T11:15:09;35.50;41.90
16287;DHT22;8251;53.568;10.018;2023-09-08T11:17:37;35.60;41.70
16287;DHT22;8251;53.568;10.018;2023-09-08T11:20:09;35.60;41.90
16287;DHT22;8251;53.568;10.018;2023-09-08T11:22:38;35.50;42.30
16287;DHT22;8251;53.568;10.018;2023-09-08T11:25:07;35.50;41.90
16287;DHT22;8251;53.568;10.018;2023-09-08T11:27:34;35.40;42.00
16287;DHT22;8251;53.568;10.018;2023-09-08T11:30:01;35.50;42.20
16287;DHT22;8251;53.568;10.018;2023-09-08T11:32:32;35.70;42.00
16287;DHT22;8251;53.568;10.018;2023-09-08T11:35:02;35.90;41.60
16287;DHT22;8251;53.568;10.018;2023-09-08T11:37:36;36.10;40.90
16287;DHT22;8251;53.568;10.018;2023-09-08T11:40:06;36.30;39.90
16287;DHT22;8251;53.568;10.018;2023-09-08T11:42:38;36.50;39.80
16287;DHT22;8251;53.568;10.018;2023-09-08T11:45:13;36.60;39.80
16287;DHT22;8251;53.568;10.018;2023-09-08T11:47:43;36.80;39.80
16287;DHT22;8251;53.568;10.018;2023-09-08T11:50:11;36.90;39.80
16287;DHT22;8251;53.568;10.018;2023-09-08T11:52:43;37.10;39.60
16287;DHT22;8251;53.568;10.018;2023-09-08T11:55:11;37.20;39.00
16287;DHT22;8251;53.568;10.018;2023-09-08T11:57:38;37.40;38.80
16287;DHT22;8251;53.568;10.018;2023-09-08T12:00:07;37.40;38.70
16287;DHT22;8251;53.568;10.018;2023-09-08T13:08:27;38.40;34.60
16287;DHT22;8251;53.568;10.018;2023-09-08T13:10:53;38.20;34.60
16287;DHT22;8251;53.568;10.018;2023-09-08T13:13:20;38.20;34.60
16287;DHT22;8251;53.568;10.018;2023-09-08T13:15:47;38.10;34.80
16287;DHT22;8251;53.568;10.018;2023-09-08T13:18:15;37.80;35.10
16287;DHT22;8251;53.568;10.018;2023-09-08T13:20:41;37.70;35.30
16287;DHT22;8251;53.568;10.018;2023-09-08T13:23:08;37.60;35.50
16287;DHT22;8251;53.568;10.018;2023-09-08T13:25:36;37.40;35.50
16287;DHT22;8251;53.568;10.018;2023-09-08T13:28:04;37.00;35.90
16287;DHT22;8251;53.568;10.018;2023-09-08T13:30:31;36.90;36.10
16287;DHT22;8251;53.568;10.018;2023-09-08T13:33:07;36.70;36.90
16287;DHT22;8251;53.568;10.018;2023-09-08T13:35:40;36.50;36.30
16287;DHT22;8251;53.568;10.018;2023-09-08T13:38:22;36.20;37.10
16287;DHT22;8251;53.568;10.018;2023-09-08T13:41:13;36.10;37.50
16287;DHT22;8251;53.568;10.018;2023-09-08T13:43:55;35.80;37.50
16287;DHT22;8251;53.568;10.018;2023-09-08T13:46:27;35.60;38.10
16287;DHT22;8251;53.568;10.018;2023-09-08T13:48:53;35.50;38.70
16287;DHT22;8251;53.568;10.018;2023-09-08T13:51:20;35.40;39.10
16287;DHT22;8251;53.568;10.018;2023-09-08T13:53:47;35.10;38.70
16287;DHT22;8251;53.568;10.018;2023-09-08T13:56:15;35.00;39.20
16287;DHT22;8251;53.568;10.018;2023-09-08T13:58:42;34.80;39.30
16287;DHT22;8251;53.568;10.018;2023-09-08T14:01:10;34.70;39.60
16287;DHT22;8251;53.568;10.018;2023-09-08T14:03:37;34.50;39.70
16287;DHT22;8251;53.568;10.018;2023-09-08T14:06:06;34.40;40.70
16287;DHT22;8251;53.568;10.018;2023-09-08T14:08:32;34.30;40.90
16287;DHT22;8251;53.568;10.018;2023-09-08T14:10:59;34.10;40.80
16287;DHT22;8251;53.568;10.018;2023-09-08T14:13:36;34.00;40.90
16287;DHT22;8251;53.568;10.018;2023-09-08T14:16:03;33.90;41.00
16287;DHT22;8251;53.568;10.018;2023-09-08T14:18:31;33.80;41.50
16287;DHT22;8251;53.568;10.018;2023-09-08T14:20:58;33.70;41.30
16287;DHT22;8251;53.568;10.018;2023-09-08T14:23:25;33.70;42.10
16287;DHT22;8251;53.568;10.018;2023-09-08T14:25:52;33.60;41.70
16287;DHT22;8251;53.568;10.018;2023-09-08T14:28:19;33.50;41.80
16287;DHT22;8251;53.568;10.018;2023-09-08T14:30:49;33.40;41.90
16287;DHT22;8251;53.568;10.018;2023-09-08T14:33:20;33.30;42.40
16287;DHT22;8251;53.568;10.018;2023-09-08T14:35:50;33.10;42.50
16287;DHT22;8251;53.568;10.018;2023-09-08T14:38:18;33.10;42.70
16287;DHT22;8251;53.568;10.018;2023-09-08T14:40:45;33.00;42.90
16287;DHT22;8251;53.568;10.018;2023-09-08T14:43:20;32.90;43.40
16287;DHT22;8251;53.568;10.018;2023-09-08T14:45:48;32.80;43.30
16287;DHT22;8251;53.568;10.018;2023-09-08T14:48:16;32.80;43.50
16287;DHT22;8251;53.568;10.018;2023-09-08T14:50:43;32.70;43.60
16287;DHT22;8251;53.568;10.018;2023-09-08T14:53:11;32.70;43.80
16287;DHT22;8251;53.568;10.018;2023-09-08T14:55:38;32.70;44.00
16287;DHT22;8251;53.568;10.018;2023-09-08T14:58:06;32.60;43.70
16287;DHT22;8251;53.568;10.018;2023-09-08T15:00:45;32.50;44.00
16287;DHT22;8251;53.568;10.018;2023-09-08T15:03:27;32.50;43.80
16287;DHT22;8251;53.568;10.018;2023-09-08T15:09:18;32.50;44.10
16287;DHT22;8251;53.568;10.018;2023-09-08T15:11:45;32.50;44.10
16287;DHT22;8251;53.568;10.018;2023-09-08T15:14:13;32.50;43.90
16287;DHT22;8251;53.568;10.018;2023-09-08T15:16:45;32.50;44.20
16287;DHT22;8251;53.568;10.018;2023-09-08T15:19:18;32.50;44.20
16287;DHT22;8251;53.568;10.018;2023-09-08T15:21:53;32.50;44.40
16287;DHT22;8251;53.568;10.018;2023-09-08T15:24:20;32.50;44.20
16287;DHT22;8251;53.568;10.018;2023-09-08T15:26:47;32.50;44.10
16287;DHT22;8251;53.568;10.018;2023-09-08T15:29:16;32.50;44.50
16287;DHT22;8251;53.568;10.018;2023-09-08T15:31:45;32.50;44.30
16287;DHT22;8251;53.568;10.018;2023-09-08T15:34:12;32.50;44.20
16287;DHT22;8251;53.568;10.018;2023-09-08T15:36:43;32.50;44.40
16287;DHT22;8251;53.568;10.018;2023-09-08T15:39:15;32.50;44.00
16287;DHT22;8251;53.568;10.018;2023-09-08T15:41:43;32.60;44.10
16287;DHT22;8251;53.568;10.018;2023-09-08T15:47:31;32.70;44.00
16287;DHT22;8251;53.568;10.018;2023-09-08T15:49:58;32.70;43.80
16287;DHT22;8251;53.568;10.018;2023-09-08T15:52:27;32.70;43.30
16287;DHT22;8251;53.568;10.018;2023-09-08T15:54:54;32.70;43.40
16287;DHT22;8251;53.568;10.018;2023-09-08T15:57:29;32.80;43.50
16287;DHT22;8251;53.568;10.018;2023-09-08T15:59:56;32.90;44.10
16287;DHT22;8251;53.568;10.018;2023-09-08T16:02:23;32.90;44.10
16287;DHT22;8251;53.568;10.018;2023-09-08T16:04:50;32.90;44.30
16287;DHT22;8251;53.568;10.018;2023-09-08T16:07:17;32.80;42.70
16287;DHT22;8251;53.568;10.018;2023-09-08T16:09:46;32.80;42.60
16287;DHT22;8251;53.568;10.018;2023-09-08T16:12:13;32.80;43.20
16287;DHT22;8251;53.568;10.018;2023-09-08T16:14:40;32.70;43.40
16287;DHT22;8251;53.568;10.018;2023-09-08T16:17:07;32.70;44.00
16287;DHT22;8251;53.568;10.018;2023-09-08T16:19:34;32.60;43.10
16287;DHT22;8251;53.568;10.018;2023-09-08T16:22:01;32.50;43.50
16287;DHT22;8251;53.568;10.018;2023-09-08T16:24:28;32.40;44.00
16287;DHT22;8251;53.568;10.018;2023-09-08T16:26:56;32.40;43.50
16287;DHT22;8251;53.568;10.018;2023-09-08T16:29:24;32.40;43.50
16287;DHT22;8251;53.568;10.018;2023-09-08T16:31:50;32.20;42.60
16287;DHT22;8251;53.568;10.018;2023-09-08T16:34:18;32.20;43.10
16287;DHT22;8251;53.568;10.018;2023-09-08T16:36:45;32.10;43.40
16287;DHT22;8251;53.568;10.018;2023-09-08T16:39:13;32.00;43.40
16287;DHT22;8251;53.568;10.018;2023-09-08T16:41:40;32.00;43.60
16287;DHT22;8251;53.568;10.018;2023-09-08T16:44:08;31.90;43.80
16287;DHT22;8251;53.568;10.018;2023-09-08T16:46:35;31.80;44.20
16287;DHT22;8251;53.568;10.018;2023-09-08T16:49:02;31.70;44.20